sensor_id;sensor_type;location;lat;lon;timestamp;P1;durP1;ratioP1;P2;durP2;ratioP2
70450;SDS011;58869;51.982;4.450;2023-06-26T00:02:12;7.37;;;7.37;;
70450;SDS011;58869;51.982;4.450;2023-06-26T00:04:37;7.99;;;7.99;;
70450;SDS011;58869;51.982;4.450;2023-06-26T00:07:05;7.90;;;7.90;;
70450;SDS011;58869;51.982;4.450;2023-06-26T00:09:32;8.24;;;8.24;;
70450;SDS011;58869;51.982;4.450;2023-06-26T00:11:57;8.11;;;8.11;;
70450;SDS011;58869;51.982;4.450;2023-06-26T00:14:26;7.91;;;7.91;;
70450;SDS011;58869;51.982;4.450;2023-06-26T00:16:52;7.59;;;7.59;;
70450;SDS011;58869;51.982;4.450;2023-06-26T00:19:18;6.79;;;6.78;;
70450;SDS011;58869;51.982;4.450;2023-06-26T00:21:44;7.01;;;7.01;;
70450;SDS011;58869;51.982;4.450;2023-06-26T00:24:13;6.65;;;6.65;;
70450;SDS011;58869;51.982;4.450;2023-06-26T00:26:39;6.28;;;6.28;;
70450;SDS011;58869;51.982;4.450;2023-06-26T00:29:05;6.25;;;6.25;;
70450;SDS011;58869;51.982;4.450;2023-06-26T00:31:30;6.43;;;6.43;;
70450;SDS011;58869;51.982;4.450;2023-06-26T00:33:56;6.50;;;6.50;;
70450;SDS011;58869;51.982;4.450;2023-06-26T00:36:21;5.93;;;5.91;;
70450;SDS011;58869;51.982;4.450;2023-06-26T00:38:51;6.61;;;6.58;;
70450;SDS011;58869;51.982;4.450;2023-06-26T00:41:17;6.31;;;6.31;;
70450;SDS011;58869;51.982;4.450;2023-06-26T00:43:42;6.04;;;6.04;;
70450;SDS011;58869;51.982;4.450;2023-06-26T00:46:08;6.17;;;6.16;;
70450;SDS011;58869;51.982;4.450;2023-06-26T00:48:36;5.89;;;5.89;;
70450;SDS011;58869;51.982;4.450;2023-06-26T00:51:02;6.27;;;6.24;;
70450;SDS011;58869;51.982;4.450;2023-06-26T00:53:28;6.55;;;6.55;;
70450;SDS011;58869;51.982;4.450;2023-06-26T00:55:54;6.26;;;6.25;;
70450;SDS011;58869;51.982;4.450;2023-06-26T00:58:21;6.46;;;6.38;;
70450;SDS011;58869;51.982;4.450;2023-06-26T01:00:50;6.34;;;6.21;;
70450;SDS011;58869;51.982;4.450;2023-06-26T01:03:16;6.51;;;6.40;;
70450;SDS011;58869;51.982;4.450;2023-06-26T01:05:42;6.13;;;6.04;;
70450;SDS011;58869;51.982;4.450;2023-06-26T01:08:11;6.73;;;6.66;;
70450;SDS011;58869;51.982;4.450;2023-06-26T01:10:37;6.76;;;6.67;;
70450;SDS011;58869;51.982;4.450;2023-06-26T01:13:03;7.06;;;6.92;;
70450;SDS011;58869;51.982;4.450;2023-06-26T01:15:29;6.81;;;6.78;;
70450;SDS011;58869;51.982;4.450;2023-06-26T01:17:55;7.22;;;7.15;;
70450;SDS011;58869;51.982;4.450;2023-06-26T01:20:25;6.54;;;6.53;;
70450;SDS011;58869;51.982;4.450;2023-06-26T01:23:04;6.79;;;6.79;;
70450;SDS011;58869;51.982;4.450;2023-06-26T01:28:27;7.20;;;7.15;;
70450;SDS011;58869;51.982;4.450;2023-06-26T01:30:54;7.34;;;7.34;;
70450;SDS011;58869;51.982;4.450;2023-06-26T01:33:20;7.34;;;7.34;;
70450;SDS011;58869;51.982;4.450;2023-06-26T01:35:46;7.26;;;7.26;;
70450;SDS011;58869;51.982;4.450;2023-06-26T01:38:21;7.39;;;7.30;;
70450;SDS011;58869;51.982;4.450;2023-06-26T01:40:51;6.94;;;6.92;;
70450;SDS011;58869;51.982;4.450;2023-06-26T01:43:27;6.77;;;6.77;;
70450;SDS011;58869;51.982;4.450;2023-06-26T01:46:18;7.05;;;7.05;;
70450;SDS011;58869;51.982;4.450;2023-06-26T01:48:57;7.28;;;7.25;;
70450;SDS011;58869;51.982;4.450;2023-06-26T01:51:30;7.33;;;7.21;;
70450;SDS011;58869;51.982;4.450;2023-06-26T01:53:58;7.33;;;7.21;;
70450;SDS011;58869;51.982;4.450;2023-06-26T01:56:25;6.99;;;6.96;;
70450;SDS011;58869;51.982;4.450;2023-06-26T01:58:54;7.57;;;7.35;;
70450;SDS011;58869;51.982;4.450;2023-06-26T02:01:20;7.23;;;7.17;;
70450;SDS011;58869;51.982;4.450;2023-06-26T02:03:47;7.54;;;7.41;;
70450;SDS011;58869;51.982;4.450;2023-06-26T02:06:12;7.79;;;7.51;;
70450;SDS011;58869;51.982;4.450;2023-06-26T02:08:38;6.83;;;6.71;;
70450;SDS011;58869;51.982;4.450;2023-06-26T02:11:03;6.99;;;6.83;;
70450;SDS011;58869;51.982;4.450;2023-06-26T02:13:29;6.61;;;6.61;;
70450;SDS011;58869;51.982;4.450;2023-06-26T02:15:54;7.04;;;6.97;;
70450;SDS011;58869;51.982;4.450;2023-06-26T02:18:20;7.17;;;7.01;;
70450;SDS011;58869;51.982;4.450;2023-06-26T02:20:49;7.30;;;7.11;;
70450;SDS011;58869;51.982;4.450;2023-06-26T02:23:15;7.07;;;6.88;;
70450;SDS011;58869;51.982;4.450;2023-06-26T02:25:40;7.42;;;7.19;;
70450;SDS011;58869;51.982;4.450;2023-06-26T02:28:06;6.98;;;6.85;;
70450;SDS011;58869;51.982;4.450;2023-06-26T02:30:31;7.12;;;6.89;;
70450;SDS011;58869;51.982;4.450;2023-06-26T02:32:57;7.47;;;7.35;;
70450;SDS011;58869;51.982;4.450;2023-06-26T02:35:22;6.92;;;6.85;;
70450;SDS011;58869;51.982;4.450;2023-06-26T02:37:48;7.15;;;7.05;;
70450;SDS011;58869;51.982;4.450;2023-06-26T02:40:13;6.98;;;6.83;;
70450;SDS011;58869;51.982;4.450;2023-06-26T02:42:39;7.14;;;6.98;;
70450;SDS011;58869;51.982;4.450;2023-06-26T02:45:04;7.20;;;6.98;;
70450;SDS011;58869;51.982;4.450;2023-06-26T02:47:30;6.90;;;6.64;;
70450;SDS011;58869;51.982;4.450;2023-06-26T02:49:56;6.97;;;6.81;;
70450;SDS011;58869;51.982;4.450;2023-06-26T02:52:21;6.88;;;6.69;;
70450;SDS011;58869;51.982;4.450;2023-06-26T02:54:47;6.76;;;6.50;;
70450;SDS011;58869;51.982;4.450;2023-06-26T02:57:12;6.78;;;6.67;;
70450;SDS011;58869;51.982;4.450;2023-06-26T02:59:40;6.71;;;6.67;;
70450;SDS011;58869;51.982;4.450;2023-06-26T03:02:05;6.95;;;6.77;;
70450;SDS011;58869;51.982;4.450;2023-06-26T03:04:31;7.33;;;7.04;;
70450;SDS011;58869;51.982;4.450;2023-06-26T03:06:57;7.01;;;6.77;;
70450;SDS011;58869;51.982;4.450;2023-06-26T03:09:22;7.10;;;6.91;;
70450;SDS011;58869;51.982;4.450;2023-06-26T03:11:47;7.35;;;7.15;;
70450;SDS011;58869;51.982;4.450;2023-06-26T03:14:13;7.19;;;6.95;;
70450;SDS011;58869;51.982;4.450;2023-06-26T03:16:39;7.38;;;7.16;;
70450;SDS011;58869;51.982;4.450;2023-06-26T03:19:05;7.47;;;7.24;;
70450;SDS011;58869;51.982;4.450;2023-06-26T03:21:30;7.17;;;6.97;;
70450;SDS011;58869;51.982;4.450;2023-06-26T03:23:56;7.22;;;6.95;;
70450;SDS011;58869;51.982;4.450;2023-06-26T03:26:21;6.69;;;6.47;;
70450;SDS011;58869;51.982;4.450;2023-06-26T03:28:52;6.73;;;6.56;;
70450;SDS011;58869;51.982;4.450;2023-06-26T03:31:18;6.81;;;6.70;;
70450;SDS011;58869;51.982;4.450;2023-06-26T03:33:44;7.31;;;7.10;;
70450;SDS011;58869;51.982;4.450;2023-06-26T03:36:10;7.20;;;6.93;;
70450;SDS011;58869;51.982;4.450;2023-06-26T03:38:35;6.87;;;6.60;;
70450;SDS011;58869;51.982;4.450;2023-06-26T03:41:01;7.00;;;6.82;;
70450;SDS011;58869;51.982;4.450;2023-06-26T03:43:27;6.82;;;6.61;;
70450;SDS011;58869;51.982;4.450;2023-06-26T03:45:52;6.92;;;6.76;;
70450;SDS011;58869;51.982;4.450;2023-06-26T03:48:18;6.65;;;6.55;;
70450;SDS011;58869;51.982;4.450;2023-06-26T03:50:46;6.51;;;6.42;;
70450;SDS011;58869;51.982;4.450;2023-06-26T03:53:13;6.64;;;6.54;;
70450;SDS011;58869;51.982;4.450;2023-06-26T03:55:39;6.04;;;5.97;;
70450;SDS011;58869;51.982;4.450;2023-06-26T03:58:04;6.58;;;6.56;;
70450;SDS011;58869;51.982;4.450;2023-06-26T04:00:30;6.48;;;6.39;;
70450;SDS011;58869;51.982;4.450;2023-06-26T04:02:55;6.43;;;6.29;;
70450;SDS011;58869;51.982;4.450;2023-06-26T04:05:22;6.27;;;6.21;;
70450;SDS011;58869;51.982;4.450;2023-06-26T04:07:51;6.93;;;6.79;;
70450;SDS011;58869;51.982;4.450;2023-06-26T04:10:17;6.57;;;6.43;;
70450;SDS011;58869;51.982;4.450;2023-06-26T04:12:43;7.08;;;7.00;;
70450;SDS011;58869;51.982;4.450;2023-06-26T04:15:08;6.24;;;6.17;;
70450;SDS011;58869;51.982;4.450;2023-06-26T04:17:34;6.17;;;6.02;;
70450;SDS011;58869;51.982;4.450;2023-06-26T04:19:59;6.10;;;5.95;;
70450;SDS011;58869;51.982;4.450;2023-06-26T04:22:25;6.60;;;6.44;;
70450;SDS011;58869;51.982;4.450;2023-06-26T04:24:51;5.74;;;5.64;;
70450;SDS011;58869;51.982;4.450;2023-06-26T04:27:17;5.84;;;5.80;;
70450;SDS011;58869;51.982;4.450;2023-06-26T04:29:43;5.82;;;5.74;;
70450;SDS011;58869;51.982;4.450;2023-06-26T04:32:08;5.52;;;5.48;;
70450;SDS011;58869;51.982;4.450;2023-06-26T04:34:34;5.45;;;5.43;;
70450;SDS011;58869;51.982;4.450;2023-06-26T04:37:01;5.37;;;5.34;;
70450;SDS011;58869;51.982;4.450;2023-06-26T04:39:29;5.33;;;5.29;;
70450;SDS011;58869;51.982;4.450;2023-06-26T04:41:55;5.30;;;5.27;;
70450;SDS011;58869;51.982;4.450;2023-06-26T04:44:21;5.03;;;4.97;;
70450;SDS011;58869;51.982;4.450;2023-06-26T04:46:46;5.64;;;5.58;;
70450;SDS011;58869;51.982;4.450;2023-06-26T04:49:12;5.77;;;5.72;;
70450;SDS011;58869;51.982;4.450;2023-06-26T04:51:37;6.42;;;6.39;;
70450;SDS011;58869;51.982;4.450;2023-06-26T04:54:08;6.56;;;6.41;;
70450;SDS011;58869;51.982;4.450;2023-06-26T04:56:35;5.93;;;5.82;;
70450;SDS011;58869;51.982;4.450;2023-06-26T04:59:02;5.64;;;5.61;;
70450;SDS011;58869;51.982;4.450;2023-06-26T05:01:28;5.47;;;5.47;;
70450;SDS011;58869;51.982;4.450;2023-06-26T05:03:58;5.59;;;5.57;;
70450;SDS011;58869;51.982;4.450;2023-06-26T05:06:24;5.71;;;5.68;;
70450;SDS011;58869;51.982;4.450;2023-06-26T05:08:49;5.49;;;5.49;;
70450;SDS011;58869;51.982;4.450;2023-06-26T05:11:15;5.19;;;5.19;;
70450;SDS011;58869;51.982;4.450;2023-06-26T05:13:42;5.31;;;5.26;;
70450;SDS011;58869;51.982;4.450;2023-06-26T05:16:08;5.18;;;5.14;;
70450;SDS011;58869;51.982;4.450;2023-06-26T05:18:34;4.97;;;4.96;;
70450;SDS011;58869;51.982;4.450;2023-06-26T05:21:02;4.61;;;4.61;;
70450;SDS011;58869;51.982;4.450;2023-06-26T05:23:32;4.35;;;4.34;;
70450;SDS011;58869;51.982;4.450;2023-06-26T05:25:58;4.19;;;4.19;;
70450;SDS011;58869;51.982;4.450;2023-06-26T05:28:25;3.90;;;3.90;;
70450;SDS011;58869;51.982;4.450;2023-06-26T05:30:52;3.57;;;3.55;;
70450;SDS011;58869;51.982;4.450;2023-06-26T05:33:18;2.95;;;2.95;;
70450;SDS011;58869;51.982;4.450;2023-06-26T05:35:47;2.95;;;2.95;;
70450;SDS011;58869;51.982;4.450;2023-06-26T05:38:13;2.91;;;2.89;;
70450;SDS011;58869;51.982;4.450;2023-06-26T05:40:39;2.88;;;2.80;;
70450;SDS011;58869;51.982;4.450;2023-06-26T05:43:05;2.81;;;2.69;;
70450;SDS011;58869;51.982;4.450;2023-06-26T05:45:31;2.57;;;2.42;;
70450;SDS011;58869;51.982;4.450;2023-06-26T05:47:57;2.78;;;2.56;;
70450;SDS011;58869;51.982;4.450;2023-06-26T05:50:23;2.64;;;2.47;;
70450;SDS011;58869;51.982;4.450;2023-06-26T05:52:49;2.62;;;2.41;;
70450;SDS011;58869;51.982;4.450;2023-06-26T05:55:14;2.81;;;2.56;;
70450;SDS011;58869;51.982;4.450;2023-06-26T05:57:40;2.54;;;2.30;;
70450;SDS011;58869;51.982;4.450;2023-06-26T06:00:06;2.73;;;2.42;;
70450;SDS011;58869;51.982;4.450;2023-06-26T06:02:36;2.69;;;2.38;;
70450;SDS011;58869;51.982;4.450;2023-06-26T06:05:02;2.56;;;2.30;;
70450;SDS011;58869;51.982;4.450;2023-06-26T06:07:28;2.66;;;2.39;;
70450;SDS011;58869;51.982;4.450;2023-06-26T06:09:53;2.93;;;2.64;;
70450;SDS011;58869;51.982;4.450;2023-06-26T06:12:19;2.74;;;2.44;;
70450;SDS011;58869;51.982;4.450;2023-06-26T06:14:44;2.74;;;2.41;;
70450;SDS011;58869;51.982;4.450;2023-06-26T06:17:10;2.71;;;2.39;;
70450;SDS011;58869;51.982;4.450;2023-06-26T06:19:35;2.33;;;2.07;;
70450;SDS011;58869;51.982;4.450;2023-06-26T06:22:01;2.36;;;2.13;;
70450;SDS011;58869;51.982;4.450;2023-06-26T06:24:26;3.06;;;2.69;;
70450;SDS011;58869;51.982;4.450;2023-06-26T06:26:52;2.88;;;2.56;;
70450;SDS011;58869;51.982;4.450;2023-06-26T06:29:17;2.93;;;2.60;;
70450;SDS011;58869;51.982;4.450;2023-06-26T06:31:53;2.83;;;2.50;;
70450;SDS011;58869;51.982;4.450;2023-06-26T06:34:19;2.99;;;2.68;;
70450;SDS011;58869;51.982;4.450;2023-06-26T06:36:44;3.01;;;2.71;;
70450;SDS011;58869;51.982;4.450;2023-06-26T06:39:10;2.77;;;2.54;;
70450;SDS011;58869;51.982;4.450;2023-06-26T06:41:35;2.98;;;2.72;;
70450;SDS011;58869;51.982;4.450;2023-06-26T06:44:01;2.79;;;2.56;;
70450;SDS011;58869;51.982;4.450;2023-06-26T06:46:26;2.66;;;2.41;;
70450;SDS011;58869;51.982;4.450;2023-06-26T06:48:52;3.02;;;2.65;;
70450;SDS011;58869;51.982;4.450;2023-06-26T06:51:18;2.81;;;2.47;;
70450;SDS011;58869;51.982;4.450;2023-06-26T06:53:43;2.63;;;2.38;;
70450;SDS011;58869;51.982;4.450;2023-06-26T06:56:09;2.78;;;2.47;;
70450;SDS011;58869;51.982;4.450;2023-06-26T06:58:34;2.74;;;2.44;;
70450;SDS011;58869;51.982;4.450;2023-06-26T07:01:01;2.43;;;2.16;;
70450;SDS011;58869;51.982;4.450;2023-06-26T07:03:33;2.71;;;2.38;;
70450;SDS011;58869;51.982;4.450;2023-06-26T07:05:59;3.25;;;2.80;;
70450;SDS011;58869;51.982;4.450;2023-06-26T07:08:25;2.96;;;2.58;;
70450;SDS011;58869;51.982;4.450;2023-06-26T07:10:50;2.94;;;2.55;;
70450;SDS011;58869;51.982;4.450;2023-06-26T07:13:16;2.89;;;2.54;;
70450;SDS011;58869;51.982;4.450;2023-06-26T07:15:41;2.77;;;2.44;;
70450;SDS011;58869;51.982;4.450;2023-06-26T07:18:07;3.07;;;2.68;;
70450;SDS011;58869;51.982;4.450;2023-06-26T07:20:32;3.16;;;2.75;;
70450;SDS011;58869;51.982;4.450;2023-06-26T07:22:58;2.86;;;2.53;;
70450;SDS011;58869;51.982;4.450;2023-06-26T07:25:23;2.76;;;2.43;;
70450;SDS011;58869;51.982;4.450;2023-06-26T07:27:49;2.96;;;2.64;;
70450;SDS011;58869;51.982;4.450;2023-06-26T07:30:14;2.72;;;2.43;;
70450;SDS011;58869;51.982;4.450;2023-06-26T07:32:40;3.03;;;2.66;;
70450;SDS011;58869;51.982;4.450;2023-06-26T07:35:08;2.77;;;2.39;;
70450;SDS011;58869;51.982;4.450;2023-06-26T07:37:34;3.12;;;2.75;;
70450;SDS011;58869;51.982;4.450;2023-06-26T07:39:59;2.82;;;2.50;;
70450;SDS011;58869;51.982;4.450;2023-06-26T07:42:25;2.84;;;2.56;;
70450;SDS011;58869;51.982;4.450;2023-06-26T07:44:50;2.88;;;2.58;;
70450;SDS011;58869;51.982;4.450;2023-06-26T07:47:16;2.74;;;2.46;;
70450;SDS011;58869;51.982;4.450;2023-06-26T07:49:41;2.53;;;2.30;;
70450;SDS011;58869;51.982;4.450;2023-06-26T07:52:07;2.63;;;2.37;;
70450;SDS011;58869;51.982;4.450;2023-06-26T07:54:35;2.73;;;2.43;;
70450;SDS011;58869;51.982;4.450;2023-06-26T07:57:01;2.85;;;2.58;;
70450;SDS011;58869;51.982;4.450;2023-06-26T07:59:32;2.55;;;2.29;;
70450;SDS011;58869;51.982;4.450;2023-06-26T08:01:58;2.63;;;2.34;;
70450;SDS011;58869;51.982;4.450;2023-06-26T08:04:25;2.92;;;2.59;;
70450;SDS011;58869;51.982;4.450;2023-06-26T08:06:53;2.59;;;2.33;;
70450;SDS011;58869;51.982;4.450;2023-06-26T08:09:25;2.76;;;2.48;;
70450;SDS011;58869;51.982;4.450;2023-06-26T08:11:51;2.55;;;2.30;;
70450;SDS011;58869;51.982;4.450;2023-06-26T08:14:18;2.51;;;2.28;;
70450;SDS011;58869;51.982;4.450;2023-06-26T08:16:43;2.50;;;2.28;;
70450;SDS011;58869;51.982;4.450;2023-06-26T08:19:12;2.60;;;2.39;;
70450;SDS011;58869;51.982;4.450;2023-06-26T08:21:48;2.68;;;2.47;;
70450;SDS011;58869;51.982;4.450;2023-06-26T08:24:13;2.72;;;2.51;;
70450;SDS011;58869;51.982;4.450;2023-06-26T08:26:41;2.61;;;2.40;;
70450;SDS011;58869;51.982;4.450;2023-06-26T08:29:07;2.87;;;2.70;;
70450;SDS011;58869;51.982;4.450;2023-06-26T08:31:34;2.86;;;2.69;;
70450;SDS011;58869;51.982;4.450;2023-06-26T08:34:00;2.98;;;2.78;;
70450;SDS011;58869;51.982;4.450;2023-06-26T08:36:26;2.75;;;2.61;;
70450;SDS011;58869;51.982;4.450;2023-06-26T08:38:51;2.41;;;2.35;;
70450;SDS011;58869;51.982;4.450;2023-06-26T08:41:17;2.47;;;2.41;;
70450;SDS011;58869;51.982;4.450;2023-06-26T08:43:42;2.69;;;2.59;;
70450;SDS011;58869;51.982;4.450;2023-06-26T08:46:08;2.62;;;2.50;;
70450;SDS011;58869;51.982;4.450;2023-06-26T08:48:35;2.53;;;2.38;;
70450;SDS011;58869;51.982;4.450;2023-06-26T08:51:11;2.59;;;2.45;;
70450;SDS011;58869;51.982;4.450;2023-06-26T08:56:19;2.52;;;2.37;;
70450;SDS011;58869;51.982;4.450;2023-06-26T08:58:47;2.56;;;2.41;;
70450;SDS011;58869;51.982;4.450;2023-06-26T09:01:13;2.64;;;2.44;;
70450;SDS011;58869;51.982;4.450;2023-06-26T09:03:38;2.68;;;2.45;;
70450;SDS011;58869;51.982;4.450;2023-06-26T09:06:07;2.53;;;2.34;;
70450;SDS011;58869;51.982;4.450;2023-06-26T09:08:33;2.74;;;2.54;;
70450;SDS011;58869;51.982;4.450;2023-06-26T09:10:58;2.91;;;2.69;;
70450;SDS011;58869;51.982;4.450;2023-06-26T09:13:24;2.67;;;2.50;;
70450;SDS011;58869;51.982;4.450;2023-06-26T09:15:50;2.84;;;2.69;;
70450;SDS011;58869;51.982;4.450;2023-06-26T09:18:20;2.57;;;2.46;;
70450;SDS011;58869;51.982;4.450;2023-06-26T09:20:46;2.62;;;2.51;;
70450;SDS011;58869;51.982;4.450;2023-06-26T09:23:13;2.69;;;2.55;;
70450;SDS011;58869;51.982;4.450;2023-06-26T09:25:41;3.12;;;2.95;;
70450;SDS011;58869;51.982;4.450;2023-06-26T09:28:08;3.08;;;2.88;;
70450;SDS011;58869;51.982;4.450;2023-06-26T09:30:34;2.79;;;2.60;;
70450;SDS011;58869;51.982;4.450;2023-06-26T09:33:19;3.18;;;2.92;;
70450;SDS011;58869;51.982;4.450;2023-06-26T09:35:45;2.85;;;2.80;;
70450;SDS011;58869;51.982;4.450;2023-06-26T09:38:15;2.93;;;2.78;;
70450;SDS011;58869;51.982;4.450;2023-06-26T09:40:52;2.72;;;2.58;;
70450;SDS011;58869;51.982;4.450;2023-06-26T09:43:18;2.80;;;2.68;;
70450;SDS011;58869;51.982;4.450;2023-06-26T09:45:45;2.89;;;2.79;;
70450;SDS011;58869;51.982;4.450;2023-06-26T09:48:11;2.95;;;2.80;;
70450;SDS011;58869;51.982;4.450;2023-06-26T09:50:41;3.24;;;3.06;;
70450;SDS011;58869;51.982;4.450;2023-06-26T09:53:08;2.91;;;2.70;;
70450;SDS011;58869;51.982;4.450;2023-06-26T09:56:06;2.96;;;2.74;;
70450;SDS011;58869;51.982;4.450;2023-06-26T09:58:32;2.88;;;2.70;;
70450;SDS011;58869;51.982;4.450;2023-06-26T10:00:58;2.48;;;2.48;;
70450;SDS011;58869;51.982;4.450;2023-06-26T10:03:27;2.61;;;2.61;;
70450;SDS011;58869;51.982;4.450;2023-06-26T10:05:52;2.67;;;2.50;;
70450;SDS011;58869;51.982;4.450;2023-06-26T10:08:19;3.00;;;2.76;;
70450;SDS011;58869;51.982;4.450;2023-06-26T10:10:46;2.29;;;2.12;;
70450;SDS011;58869;51.982;4.450;2023-06-26T10:13:16;2.49;;;2.32;;
70450;SDS011;58869;51.982;4.450;2023-06-26T10:15:47;2.47;;;2.32;;
70450;SDS011;58869;51.982;4.450;2023-06-26T10:18:15;2.35;;;2.24;;
70450;SDS011;58869;51.982;4.450;2023-06-26T10:20:44;2.14;;;2.05;;
70450;SDS011;58869;51.982;4.450;2023-06-26T10:23:12;2.06;;;1.94;;
70450;SDS011;58869;51.982;4.450;2023-06-26T10:25:40;2.48;;;2.32;;
70450;SDS011;58869;51.982;4.450;2023-06-26T10:28:09;2.13;;;2.00;;
70450;SDS011;58869;51.982;4.450;2023-06-26T10:30:37;2.13;;;1.98;;
70450;SDS011;58869;51.982;4.450;2023-06-26T10:33:05;2.52;;;2.32;;
70450;SDS011;58869;51.982;4.450;2023-06-26T10:35:32;2.34;;;2.15;;
70450;SDS011;58869;51.982;4.450;2023-06-26T10:38:01;2.04;;;1.91;;
70450;SDS011;58869;51.982;4.450;2023-06-26T10:40:33;2.22;;;2.13;;
70450;SDS011;58869;51.982;4.450;2023-06-26T10:43:10;2.17;;;2.08;;
70450;SDS011;58869;51.982;4.450;2023-06-26T10:45:42;1.90;;;1.82;;
70450;SDS011;58869;51.982;4.450;2023-06-26T10:48:09;2.04;;;1.95;;
70450;SDS011;58869;51.982;4.450;2023-06-26T10:50:35;2.20;;;2.10;;
70450;SDS011;58869;51.982;4.450;2023-06-26T10:56:00;2.15;;;2.02;;
70450;SDS011;58869;51.982;4.450;2023-06-26T11:01:19;1.93;;;1.83;;
70450;SDS011;58869;51.982;4.450;2023-06-26T11:03:48;1.96;;;1.89;;
70450;SDS011;58869;51.982;4.450;2023-06-26T11:06:22;2.00;;;1.91;;
70450;SDS011;58869;51.982;4.450;2023-06-26T11:11:14;1.97;;;1.89;;
70450;SDS011;58869;51.982;4.450;2023-06-26T11:13:41;2.28;;;2.15;;
70450;SDS011;58869;51.982;4.450;2023-06-26T11:16:08;2.13;;;2.03;;
70450;SDS011;58869;51.982;4.450;2023-06-26T11:18:34;1.82;;;1.79;;
70450;SDS011;58869;51.982;4.450;2023-06-26T11:21:08;1.77;;;1.77;;
70450;SDS011;58869;51.982;4.450;2023-06-26T11:23:36;1.85;;;1.83;;
70450;SDS011;58869;51.982;4.450;2023-06-26T11:26:19;1.80;;;1.77;;
70450;SDS011;58869;51.982;4.450;2023-06-26T11:28:48;2.26;;;2.14;;
70450;SDS011;58869;51.982;4.450;2023-06-26T11:31:28;1.97;;;1.87;;
70450;SDS011;58869;51.982;4.450;2023-06-26T11:33:56;2.17;;;2.06;;
70450;SDS011;58869;51.982;4.450;2023-06-26T11:36:27;1.85;;;1.77;;
70450;SDS011;58869;51.982;4.450;2023-06-26T11:38:57;2.05;;;1.96;;
70450;SDS011;58869;51.982;4.450;2023-06-26T11:41:25;1.82;;;1.74;;
70450;SDS011;58869;51.982;4.450;2023-06-26T11:43:52;1.90;;;1.81;;
70450;SDS011;58869;51.982;4.450;2023-06-26T11:46:19;2.06;;;1.95;;
70450;SDS011;58869;51.982;4.450;2023-06-26T11:48:47;2.02;;;1.92;;
70450;SDS011;58869;51.982;4.450;2023-06-26T11:51:13;1.81;;;1.71;;
70450;SDS011;58869;51.982;4.450;2023-06-26T11:53:45;2.01;;;1.89;;
70450;SDS011;58869;51.982;4.450;2023-06-26T11:56:12;2.30;;;2.17;;
70450;SDS011;58869;51.982;4.450;2023-06-26T12:01:36;2.09;;;1.98;;
70450;SDS011;58869;51.982;4.450;2023-06-26T12:04:03;1.91;;;1.80;;
70450;SDS011;58869;51.982;4.450;2023-06-26T12:06:30;1.99;;;1.88;;
70450;SDS011;58869;51.982;4.450;2023-06-26T12:09:00;1.98;;;1.89;;
70450;SDS011;58869;51.982;4.450;2023-06-26T12:11:28;1.86;;;1.80;;
70450;SDS011;58869;51.982;4.450;2023-06-26T12:13:55;1.93;;;1.89;;
70450;SDS011;58869;51.982;4.450;2023-06-26T12:16:20;1.77;;;1.73;;
70450;SDS011;58869;51.982;4.450;2023-06-26T12:18:46;1.70;;;1.69;;
70450;SDS011;58869;51.982;4.450;2023-06-26T12:21:43;1.98;;;1.93;;
70450;SDS011;58869;51.982;4.450;2023-06-26T12:24:18;1.90;;;1.84;;
70450;SDS011;58869;51.982;4.450;2023-06-26T12:26:48;2.07;;;1.99;;
70450;SDS011;58869;51.982;4.450;2023-06-26T12:29:20;1.90;;;1.86;;
70450;SDS011;58869;51.982;4.450;2023-06-26T12:31:55;1.84;;;1.79;;
70450;SDS011;58869;51.982;4.450;2023-06-26T12:34:31;1.95;;;1.92;;
70450;SDS011;58869;51.982;4.450;2023-06-26T12:37:03;1.72;;;1.69;;
70450;SDS011;58869;51.982;4.450;2023-06-26T12:39:44;1.75;;;1.73;;
70450;SDS011;58869;51.982;4.450;2023-06-26T12:42:26;2.02;;;2.01;;
70450;SDS011;58869;51.982;4.450;2023-06-26T12:47:47;1.89;;;1.87;;
70450;SDS011;58869;51.982;4.450;2023-06-26T12:53:20;1.87;;;1.79;;
70450;SDS011;58869;51.982;4.450;2023-06-26T12:56:01;1.91;;;1.82;;
70450;SDS011;58869;51.982;4.450;2023-06-26T12:58:35;1.90;;;1.82;;
70450;SDS011;58869;51.982;4.450;2023-06-26T13:01:23;1.87;;;1.78;;
70450;SDS011;58869;51.982;4.450;2023-06-26T13:03:49;1.78;;;1.71;;
70450;SDS011;58869;51.982;4.450;2023-06-26T13:06:16;1.96;;;1.90;;
70450;SDS011;58869;51.982;4.450;2023-06-26T13:08:42;1.82;;;1.82;;
70450;SDS011;58869;51.982;4.450;2023-06-26T13:11:08;1.84;;;1.84;;
70450;SDS011;58869;51.982;4.450;2023-06-26T13:13:34;1.92;;;1.90;;
70450;SDS011;58869;51.982;4.450;2023-06-26T13:15:59;1.80;;;1.73;;
70450;SDS011;58869;51.982;4.450;2023-06-26T13:18:25;1.95;;;1.93;;
70450;SDS011;58869;51.982;4.450;2023-06-26T13:20:51;2.02;;;1.97;;
70450;SDS011;58869;51.982;4.450;2023-06-26T13:23:16;1.75;;;1.74;;
70450;SDS011;58869;51.982;4.450;2023-06-26T13:25:46;1.57;;;1.57;;
70450;SDS011;58869;51.982;4.450;2023-06-26T13:28:13;1.67;;;1.67;;
70450;SDS011;58869;51.982;4.450;2023-06-26T13:30:38;1.61;;;1.61;;
70450;SDS011;58869;51.982;4.450;2023-06-26T13:33:05;1.40;;;1.40;;
70450;SDS011;58869;51.982;4.450;2023-06-26T13:35:34;1.86;;;1.86;;
70450;SDS011;58869;51.982;4.450;2023-06-26T13:38:02;1.70;;;1.70;;
70450;SDS011;58869;51.982;4.450;2023-06-26T13:40:28;1.29;;;1.29;;
70450;SDS011;58869;51.982;4.450;2023-06-26T13:42:54;1.58;;;1.58;;
70450;SDS011;58869;51.982;4.450;2023-06-26T13:45:19;1.59;;;1.59;;
70450;SDS011;58869;51.982;4.450;2023-06-26T13:47:47;1.64;;;1.64;;
70450;SDS011;58869;51.982;4.450;2023-06-26T13:50:13;1.76;;;1.76;;
70450;SDS011;58869;51.982;4.450;2023-06-26T13:52:38;1.90;;;1.90;;
70450;SDS011;58869;51.982;4.450;2023-06-26T13:55:04;1.80;;;1.80;;
70450;SDS011;58869;51.982;4.450;2023-06-26T13:57:30;1.66;;;1.66;;
70450;SDS011;58869;51.982;4.450;2023-06-26T14:00:09;1.58;;;1.58;;
70450;SDS011;58869;51.982;4.450;2023-06-26T14:02:37;1.79;;;1.79;;
70450;SDS011;58869;51.982;4.450;2023-06-26T14:05:02;1.86;;;1.86;;
70450;SDS011;58869;51.982;4.450;2023-06-26T14:07:29;1.85;;;1.85;;
70450;SDS011;58869;51.982;4.450;2023-06-26T14:09:57;1.64;;;1.64;;
70450;SDS011;58869;51.982;4.450;2023-06-26T14:12:23;1.67;;;1.66;;
70450;SDS011;58869;51.982;4.450;2023-06-26T14:14:50;1.39;;;1.39;;
70450;SDS011;58869;51.982;4.450;2023-06-26T14:17:15;1.49;;;1.49;;
70450;SDS011;58869;51.982;4.450;2023-06-26T14:19:41;1.56;;;1.56;;
70450;SDS011;58869;51.982;4.450;2023-06-26T14:22:07;1.65;;;1.65;;
70450;SDS011;58869;51.982;4.450;2023-06-26T14:24:32;1.70;;;1.70;;
70450;SDS011;58869;51.982;4.450;2023-06-26T14:26:57;1.67;;;1.67;;
70450;SDS011;58869;51.982;4.450;2023-06-26T14:29:23;1.77;;;1.77;;
70450;SDS011;58869;51.982;4.450;2023-06-26T14:31:48;1.65;;;1.65;;
70450;SDS011;58869;51.982;4.450;2023-06-26T14:34:14;1.91;;;1.91;;
70450;SDS011;58869;51.982;4.450;2023-06-26T14:36:39;1.76;;;1.76;;
70450;SDS011;58869;51.982;4.450;2023-06-26T14:39:05;1.82;;;1.82;;
70450;SDS011;58869;51.982;4.450;2023-06-26T14:41:30;1.85;;;1.85;;
70450;SDS011;58869;51.982;4.450;2023-06-26T14:44:02;1.88;;;1.88;;
70450;SDS011;58869;51.982;4.450;2023-06-26T14:46:27;1.74;;;1.74;;
70450;SDS011;58869;51.982;4.450;2023-06-26T14:48:53;1.88;;;1.88;;
70450;SDS011;58869;51.982;4.450;2023-06-26T14:51:20;1.81;;;1.81;;
70450;SDS011;58869;51.982;4.450;2023-06-26T14:53:52;1.94;;;1.94;;
70450;SDS011;58869;51.982;4.450;2023-06-26T14:56:17;1.81;;;1.81;;
70450;SDS011;58869;51.982;4.450;2023-06-26T14:58:46;1.86;;;1.86;;
70450;SDS011;58869;51.982;4.450;2023-06-26T15:01:17;1.86;;;1.86;;
70450;SDS011;58869;51.982;4.450;2023-06-26T15:03:50;2.01;;;2.01;;
70450;SDS011;58869;51.982;4.450;2023-06-26T15:06:19;2.07;;;2.07;;
70450;SDS011;58869;51.982;4.450;2023-06-26T15:08:44;2.05;;;2.05;;
70450;SDS011;58869;51.982;4.450;2023-06-26T15:11:10;1.86;;;1.86;;
70450;SDS011;58869;51.982;4.450;2023-06-26T15:13:45;1.89;;;1.89;;